Du har inga inställningar för hoppväder.nu

Hoppväder.nu

Senast uppdaterat 05:45

UTC-tid

2018-02-22 kl. 04:45


Sol och måne

Solen går upp 7:13 och går ner 17:21 (beräknade cirkatider)
Nästa fullmåne blir om 8 dagar (2018-03-02)

METAR

ESMK (Everöd)
(25 minuter sedan)
ESMK 220420Z AUTO 05006KT 9999 FEW019/// OVC021/// M03/M06 Q1028=



ESMS (Malmö)
(25 minuter sedan)
ESMS 220420Z 07008KT 9999 OVC011 M03/M05 Q1027 RWY 17 WET OR WATER PATCHES 51-100 PCT BA GOOD=



ESMX (Växjö)
(25 minuter sedan)
ESMX 220420Z AUTO 01003KT 6000 BR NCD M10/M11 Q1028=



ESDF (Ronneby)
(25 minuter sedan)
ESDF 220420Z AUTO 36006KT 9999 NCD M08/M09 Q1028=



EKRN (Rønne, Bornholm)
(25 minuter sedan)
EKRN 220420Z AUTO 02004KT 9999NDV FEW015/// FEW019/// FEW052/// M02/M03 Q1026 RWY 99 WET SNOW 51-100 PCT 1 MM FCT 0.37=



TAF

ESMK (Everöd)
(24 minuter sedan)
ESMK RRY 220421Z 2205/2212 04008KT 9999 FEW020=



ESMS (Malmö)
(19 minuter sedan)
ESMS AAY 220426Z 2204/2224 05010KT 9999 BKN020 TEMPO 2204/2207 BKN012=



ESMX (Växjö)
(75 minuter sedan)
ESMX RRB 220330Z 2204/2212 03004KT 9999 FEW015 PROB40 2204/2207 4000 BR=



ESDF (Ronneby)
ESDF



EKRN (Rønne, Bornholm)
(52 minuter sedan)
EKRN RRB 220353Z 2204/2212 VRB03KT 8000 BKN030 TEMPO 2204/2206 4000 BR=





Kodnycklar till TAF och METAR






LHP

(Everöd är område J3b i Hela Område E)

Prognos är inte uppdaterad
ÖVERSIKT FÖR OMRÅDE E UTFÄRDAD 220414
GÄLLANDE DEN 22 FEBRUARI 2018 MELLAN 05 OCH 13 UTC


Väderöversikt
Se väderöversikt för område A+B

Sikt under 5 kilometer eller molnbas under 1000 fot
05-11UTC: I hela området


Måttlig eller svår isbildning
Väntas inte förekomma under perioden

Måttlig eller svår turbulens
Väntas inte förekomma under perioden

PROGNOS FÖR OMRÅDE J UTFÄRDAD 220414
GÄLLANDE DEN 22 FEBRUARI 2018 MELLAN 05 OCH 13 UTC

Måttlig eller svår turbulens
05-13UTC: I hela området: Väntas inte förekomma under perioden

Måttlig eller svår isbildning
05-13UTC: I hela området: Väntas inte förekomma under perioden

Sikt/Väder/Moln
05-09UTC: Område J1b,J1c,J2a,J2b,J3a,J3b: Sikt >8km, lokalt 5km - 8km. Molnbas >4000ft, lokalt 500ft - 1000ft.
Område J1a: Sikt 5km - >8km. Molnbas 500ft - >4000ft.

05-11UTC: Område J3c,J4a,J4b: Sikt 3km - >8km i snöbyar. Molnbas 500ft - >4000ft.
Område J4c: Sikt >8km, lokalt 3km - 5km i snöbyar. Molnbas >4000ft, lokalt 500ft - 1000ft.

09-13UTC: Område J1b,J1c,J2a,J2b,J3a,J3b: Sikt >8km. Molnbas >4000ft, lokalt 2000ft - 4000ft.
Område J1a: Sikt >8km. Molnbas 1500ft - >4000ft.

11-13UTC: Område J4c: Sikt >8km, lokalt 5km - 8km i snöbyar. Molnbas >4000ft, lokalt 1000ft - 1500ft.
Område J3c,J4a,J4b: Sikt 5km - >8km i snöbyar. Molnbas 1000ft - >4000ft.


Molnöversida
05-13UTC: Område J1a,J1b,J1c,J2a,J2b,J3a,J3b: Molnöversida FL050.
Område J3c,J4a,J4b,J4c: Molnöversida FL080.


CB/TCU Moln
05-13UTC: Område J3c,J4a,J4b,J4c: TCU
Område J1a,J1b,J1c,J2a,J2b,J3a,J3b: Väntas inte förekomma under perioden


Nollgradersisoterm
05-13UTC: Noll grader SFC - 1000ft.

Vind vid marken
05-07UTC: Område J1c: O/4-12 knop, byar upp till 16 knop.
Område J3b: NO-O/2-7 knop, byar upp till 13 knop.
Område J2b: O/2-10 knop, byar upp till 15 knop.
Område J3c: NO/3-9 knop, byar upp till 17 knop.
Område J4a: NO-O/4-18 knop, byar upp till 22 knop.
Område J1b: O/3-13 knop, byar upp till 17 knop.
Område J4c: O/4-18 knop, byar upp till 23 knop.
Område J1a: O/4-13 knop, byar upp till 17 knop.
Område J3a: NO/2-9 knop.
Område J2a: NO-O/1-8 knop, byar upp till 12 knop.
Område J4b: NO-O/4-17 knop, byar upp till 22 knop.

07-09UTC: Område J4b: NO-O/4-13 knop, byar upp till 20 knop.
Område J2b: O/2-9 knop, byar upp till 14 knop.
Område J1c: NO-O/5-11 knop.
Område J1a: O/3-11 knop, byar upp till 16 knop.
Område J3b: NO-O/2-6 knop.
Område J2a: O/2-7 knop.
Område J3c: NO-O/3-10 knop, byar upp till 16 knop.
Område J4a: NO-O/6-16 knop, byar upp till 21 knop.
Område J1b: O/4-11 knop, byar upp till 16 knop.
Område J3a: NO/2-9 knop, byar upp till 13 knop.
Område J4c: O-SO/5-19 knop, byar upp till 24 knop.

09-11UTC: Område J2b: O/4-8 knop.
Område J4a: O/7-15 knop, byar upp till 20 knop.
Område J2a: O/2-6 knop.
Område J1a: O/3-9 knop.
Område J3b: NO-O/2-5 knop.
Område J1c: O/5-10 knop.
Område J4b: O/3-14 knop, byar upp till 18 knop.
Område J4c: O-SO/7-16 knop, byar upp till 23 knop.
Område J1b: O/4-10 knop.
Område J3c: NO-O/2-10 knop, byar upp till 17 knop.
Område J3a: NO-O/3-6 knop.

11-13UTC: Område J2a: O/1-4 knop.
Område J2b: O/2-6 knop.
Område J1a: O/0-6 knop, byar upp till 11 knop.
Område J1c: O/4-11 knop, byar upp till 15 knop.
Område J3c: O/3-8 knop, byar upp till 15 knop.
Område J3a,J3b: O/2-4 knop.
Område J4a: O-SO/6-14 knop, byar upp till 19 knop.
Område J1b: NO-O/2-7 knop.
Område J4b: SO/2-15 knop, byar upp till 19 knop.
Område J4c: O-SO/8-15 knop, byar upp till 20 knop.


Vind och temperatur
2000ft:
05-07UTC: 80/18kt -7.
07-09UTC: 90/17kt -7.
09-11UTC: 100/16kt -7.
11-13UTC: 110/15kt -7.

FL50:
05-07UTC: 30/18kt -11.
07-09UTC: 40/16kt -11.
09-11UTC: 50/15kt -11.
11-13UTC: 50/13kt -12.

FL100:
05-07UTC: 30/25kt -18.
07-09UTC: 30/23kt -18.
09-11UTC: 30/22kt -18.
11-13UTC: 30/23kt -18.

Lägsta QNH
1025 hPa.

OBS! endast utbredd måttlig eller svår isbildning och turbulens prognostiseras i LLF.
Avsaknad av isbildning och turbulens i prognosen utesluter inte förekomst av lätt isbildning och turbulens.
För indikation på lätt isbildning, var vänlig kontrollera om prognosen för molntopp ligger högre än nollgradersisotermen.
Förekomst av TCU eller CB medför alltid en risk för måttlig eller svår isbildning och turbulens även om det inte framgår explicit av prognosen.





Spotting

Hur fungerar spotthjälpen och Vindkartan?

Markvind är ca 1-4 m/s med byar på 7 m/s.
Vind på 600 m ca 9 m/s.
Vind på 1500 m ca 9 m/s.
Vind på 3000 m ca 13 m/s.
KalleDavid flyger ca 31 m/s över marken på finalen.
Du driver ca 579 m bakåt i frifall. (772 m)
Lämplig spot är 10 sekunder eller 309 m efter gropen.
(16 s eller 494 m)
För små grupper eller ensamhoppare bör man vänta 5-7 sekunder mellan grupperna.
För större grupper bör man vänta 10-12 sekunder mellan grupperna.


Vindkartan

Senast uppdaterad 05:45



All data kommer från LFV.se